TimeMST,TemperatureF,Dew PointF,Humidity,Sea Level PressureIn,VisibilityMPH,Wind Direction,Wind SpeedMPH,Gust SpeedMPH,PrecipitationIn,Events,Conditions,WindDirDegrees,DateUTC
12:55 AM,19.9,14.0,78,30.36,10.0,Calm,Calm,-,N/A,,Clear,0,2014-01-20 07:55:00
1:55 AM,19.9,15.1,81,30.37,10.0,Calm,Calm,-,N/A,,Scattered Clouds,0,2014-01-20 08:55:00
2:55 AM,17.1,12.9,84,30.39,10.0,Calm,Calm,-,N/A,,Clear,0,2014-01-20 09:55:00
3:55 AM,19.0,14.0,81,30.41,10.0,NNW,4.6,-,N/A,,Clear,340,2014-01-20 10:55:00
4:55 AM,17.1,12.0,81,30.47,10.0,South,5.8,-,N/A,,Clear,170,2014-01-20 11:55:00
5:55 AM,15.1,10.9,84,30.51,10.0,Calm,Calm,-,N/A,,Clear,0,2014-01-20 12:55:00
6:55 AM,17.1,12.0,81,30.54,10.0,Calm,Calm,-,N/A,,Clear,0,2014-01-20 13:55:00
7:55 AM,12.9,10.0,88,30.58,10.0,Calm,Calm,-,N/A,,Clear,0,2014-01-20 14:55:00
8:55 AM,17.1,12.0,81,30.59,10.0,NNE,3.5,-,N/A,,Clear,20,2014-01-20 15:55:00
9:55 AM,21.0,15.1,78,30.61,10.0,Calm,Calm,-,N/A,,Clear,0,2014-01-20 16:55:00
10:55 AM,26.1,17.1,69,30.60,10.0,Calm,Calm,-,N/A,,Clear,0,2014-01-20 17:55:00
11:55 AM,30.0,17.1,59,30.59,10.0,Calm,Calm,-,N/A,,Clear,0,2014-01-20 18:55:00
12:55 PM,34.0,17.1,50,30.56,10.0,Calm,Calm,-,N/A,,Clear,0,2014-01-20 19:55:00
1:55 PM,36.0,17.1,46,30.53,10.0,Calm,Calm,-,N/A,,Clear,0,2014-01-20 20:55:00
2:55 PM,39.0,17.1,41,30.52,10.0,Calm,Calm,-,N/A,,Clear,0,2014-01-20 21:55:00
3:55 PM,39.9,17.1,40,30.51,10.0,Calm,Calm,-,N/A,,Clear,0,2014-01-20 22:55:00
4:55 PM,32.0,17.1,54,30.54,10.0,Calm,Calm,-,N/A,,Clear,0,2014-01-20 23:55:00
5:55 PM,27.0,17.1,66,30.57,10.0,West,4.6,-,N/A,,Clear,260,2014-01-21 00:55:00
6:55 PM,27.0,17.1,66,30.58,10.0,Calm,Calm,-,N/A,,Clear,0,2014-01-21 01:55:00
7:55 PM,23.0,17.1,78,30.63,10.0,SE,4.6,-,N/A,,Clear,140,2014-01-21 02:55:00
8:55 PM,21.0,15.1,78,30.63,10.0,NNW,3.5,-,N/A,,Clear,340,2014-01-21 03:55:00
9:55 PM,21.0,15.1,78,30.63,10.0,Calm,Calm,-,N/A,,Clear,0,2014-01-21 04:55:00
10:55 PM,19.9,14.0,78,30.62,9.0,Calm,Calm,-,N/A,,Clear,0,2014-01-21 05:55:00
11:55 PM,19.0,12.9,77,30.61,10.0,Calm,Calm,-,N/A,,Clear,0,2014-01-21 06:55:00